Time;durP1;ratioP1;P1;durP2;ratioP2;P2;SDS_P1;SDS_P2;PMS_P1;PMS_P2;Temp;Humidity;BMP_temperature;BMP_pressure;BME280_temperature;BME280_humidity;BME280_pressure;Samples;Min_cycle;Max_cycle;Signal;HPM_P1;HPM_P2
2021/03/16 00:01:57;;;;;;;0.50;0.50;;;;;;;3.33;100.00;100880.91;4990598;28;20374;-79
2021/03/16 00:05:00;;;;;;;0.43;0.43;;;;;;;3.43;100.00;100893.84;4999563;28;20405;-79
2021/03/16 00:08:04;;;;;;;0.50;0.50;;;;;;;3.50;100.00;100882.78;5008454;28;20061;-79
2021/03/16 00:11:07;;;;;;;0.40;0.40;;;;;;;3.59;100.00;100883.13;5008462;28;20065;-79
2021/03/16 00:14:11;;;;;;;0.35;0.35;;;;;;;3.65;100.00;100868.53;5013126;28;20065;-79
2021/03/16 00:17:14;;;;;;;0.22;0.22;;;;;;;3.68;100.00;100855.94;5013132;28;20065;-79
2021/03/16 00:20:17;;;;;;;0.40;0.40;;;;;;;3.69;100.00;100860.22;5012859;28;20057;-79
2021/03/16 00:23:21;;;;;;;0.22;0.22;;;;;;;3.69;100.00;100868.50;5013123;28;20061;-79
2021/03/16 00:26:24;;;;;;;0.50;0.50;;;;;;;3.71;100.00;100866.13;5013146;28;20065;-79
2021/03/16 00:29:28;;;;;;;0.50;0.50;;;;;;;3.74;100.00;100866.13;5012772;28;20057;-79
2021/03/16 00:32:32;;;;;;;0.60;0.60;;;;;;;3.80;100.00;100864.50;5012858;28;20053;-79
2021/03/16 00:35:36;;;;;;;0.22;0.22;;;;;;;3.87;100.00;100866.41;5013937;28;20076;-79
2021/03/16 00:38:40;;;;;;;0.73;0.73;;;;;;;3.90;100.00;100862.81;5012815;28;20084;-79
2021/03/16 00:41:43;;;;;;;0.35;0.35;;;;;;;3.95;100.00;100862.41;5000744;28;20061;-79
2021/03/16 00:44:46;;;;;;;1.88;0.60;;;;;;;3.99;100.00;100871.41;5000627;28;20062;-79
2021/03/16 00:47:50;;;;;;;0.30;0.30;;;;;;;4.04;100.00;100872.97;5000841;28;20077;-79
2021/03/16 00:50:54;;;;;;;0.38;0.38;;;;;;;4.08;100.00;100857.97;5001016;28;20050;-79
2021/03/16 00:53:58;;;;;;;7.00;0.82;;;;;;;4.14;100.00;100859.09;5000970;28;20114;-79
2021/03/16 00:57:01;;;;;;;0.50;0.50;;;;;;;4.19;100.00;100855.91;5000772;28;20085;-78
2021/03/16 01:00:05;;;;;;;0.40;0.40;;;;;;;4.23;100.00;100864.91;4997860;28;20066;-79
2021/03/16 01:03:09;;;;;;;0.30;0.30;;;;;;;4.28;100.00;100861.72;4997349;28;20065;-79
2021/03/16 01:06:12;;;;;;;0.30;0.30;;;;;;;4.31;100.00;100855.38;4999777;28;20058;-79
2021/03/16 01:09:15;;;;;;;0.32;0.32;;;;;;;4.34;100.00;100849.06;4996191;28;20062;-79
2021/03/16 01:12:19;;;;;;;0.50;0.50;;;;;;;4.34;100.00;100849.06;4994987;28;20077;-79
2021/03/16 01:15:22;;;;;;;0.22;0.22;;;;;;;4.34;100.00;100849.06;4992700;28;20420;-79
2021/03/16 01:18:27;;;;;;;0.20;0.20;;;;;;;4.32;100.00;100842.38;4992283;28;20065;-79
2021/03/16 01:21:30;;;;;;;0.40;0.40;;;;;;;4.35;100.00;100850.59;4991940;28;20069;-79
2021/03/16 01:24:34;;;;;;;0.20;0.20;;;;;;;4.39;100.00;100845.06;4992497;28;20061;-79
2021/03/16 01:27:37;;;;;;;0.30;0.30;;;;;;;4.41;100.00;100849.00;4992260;28;20061;-79
2021/03/16 01:30:41;;;;;;;0.32;0.32;;;;;;;4.44;100.00;100842.63;4992419;28;20066;-79
2021/03/16 01:33:44;;;;;;;0.30;0.30;;;;;;;4.48;100.00;100843.38;4999901;28;20131;-79
2021/03/16 01:36:48;;;;;;;0.20;0.20;;;;;;;4.55;100.00;100837.78;5000237;28;20065;-79
2021/03/16 01:39:51;;;;;;;0.25;0.25;;;;;;;4.58;100.00;100842.50;5000148;28;20053;-79
2021/03/16 01:43:06;;;;;;;0.20;0.20;;;;;;;4.67;100.00;100833.72;4994085;28;20066;-79
2021/03/16 01:46:10;;;;;;;0.35;0.35;;;;;;;4.71;100.00;100833.69;4972662;28;20081;-79
2021/03/16 01:49:14;;;;;;;0.40;0.40;;;;;;;4.75;100.00;100826.16;4972316;28;20061;-79
2021/03/16 01:52:18;;;;;;;0.20;0.20;;;;;;;4.78;100.00;100823.34;4971507;28;20115;-79
2021/03/16 01:55:22;;;;;;;0.28;0.28;;;;;;;4.80;100.00;100820.19;4972672;28;20062;-79
2021/03/16 01:58:25;;;;;;;0.38;0.38;;;;;;;4.80;100.00;100820.97;4972351;28;20417;-79
2021/03/16 02:01:29;;;;;;;0.50;0.50;;;;;;;4.81;100.00;100811.47;4972591;28;20081;-79
2021/03/16 02:04:33;;;;;;;0.10;0.10;;;;;;;4.82;100.00;100804.00;4972232;28;20062;-79
2021/03/16 02:08:09;;;;;;;0.17;0.17;;;;;;;4.84;100.00;100793.31;4972015;28;20073;-79
2021/03/16 02:11:24;;;;;;;0.20;0.20;;;;;;;4.84;100.00;100799.63;4971088;28;20065;-79
2021/03/16 02:14:37;;;;;;;0.20;0.20;;;;;;;4.85;100.00;100800.41;4970882;28;20046;-78
2021/03/16 02:17:47;;;;;;;0.32;0.32;;;;;;;4.84;100.00;100798.84;4972328;28;20066;-78
2021/03/16 02:21:13;;;;;;;0.15;0.15;;;;;;;4.84;100.00;100799.63;4972142;28;20058;-78
2021/03/16 02:24:27;;;;;;;0.30;0.30;;;;;;;4.86;100.00;100799.19;4971823;28;20057;-79
2021/03/16 02:27:47;;;;;;;2.45;0.40;;;;;;;4.85;100.00;100795.66;4970877;28;20062;-79
2021/03/16 02:30:52;;;;;;;0.28;0.28;;;;;;;4.87;100.00;100796.06;4971054;28;20057;-79
2021/03/16 02:33:57;;;;;;;0.17;0.17;;;;;;;4.89;100.00;100795.63;4971620;28;20062;-79
2021/03/16 02:37:04;;;;;;;0.20;0.20;;;;;;;4.91;100.00;100793.22;4971546;28;20066;-77
2021/03/16 02:40:09;;;;;;;0.13;0.13;;;;;;;4.92;100.00;100789.25;4977758;28;20065;-78
2021/03/16 02:43:13;;;;;;;0.98;0.63;;;;;;;4.89;100.00;100793.66;5006842;28;20069;-80
2021/03/16 02:46:18;;;;;;;0.38;0.38;;;;;;;4.91;100.00;100791.25;5010619;28;20060;-80
2021/03/16 02:49:24;;;;;;;0.30;0.30;;;;;;;4.95;100.00;100782.94;4999365;28;20054;-80
2021/03/16 02:52:28;;;;;;;0.17;0.17;;;;;;;4.99;100.00;100780.91;4990729;28;20057;-80
2021/03/16 02:55:31;;;;;;;0.10;0.10;;;;;;;5.02;100.00;100778.09;4990214;28;20050;-80
2021/03/16 02:58:35;;;;;;;0.20;0.20;;;;;;;5.07;100.00;100769.34;5005768;28;20073;-81
2021/03/16 03:01:39;;;;;;;0.30;0.30;;;;;;;5.11;100.00;100772.06;4990166;28;20081;-80
2021/03/16 03:04:45;;;;;;;0.20;0.20;;;;;;;5.13;100.00;100772.44;4990291;28;20057;-80
2021/03/16 03:07:50;;;;;;;0.47;0.47;;;;;;;5.18;100.00;100767.22;4989861;28;20061;-80
2021/03/16 03:10:56;;;;;;;0.30;0.30;;;;;;;5.21;100.00;100762.84;4990939;28;20069;-79
2021/03/16 03:14:00;;;;;;;0.20;0.20;;;;;;;5.20;100.00;100762.06;4990806;28;20061;-80
2021/03/16 03:17:05;;;;;;;0.20;0.20;;;;;;;5.25;100.00;100758.03;5005353;28;20605;-79
2021/03/16 03:20:11;;;;;;;0.17;0.17;;;;;;;5.30;100.00;100754.81;5009739;28;20077;-80
2021/03/16 03:23:27;;;;;;;0.10;0.10;;;;;;;5.38;100.00;100756.25;5010241;28;20065;-81
2021/03/16 03:26:49;;;;;;;0.20;0.20;;;;;;;5.48;100.00;100760.06;5009605;28;20072;-80
2021/03/16 03:29:53;;;;;;;;;;;;;;;5.58;100.00;100748.84;5010817;28;20072;-79
2021/03/16 03:33:00;;;;;;;0.40;0.40;;;;;;;5.80;100.00;100747.28;5009946;28;19921;-80
2021/03/16 03:36:05;;;;;;;0.43;0.43;;;;;;;6.07;100.00;100753.53;5009487;28;20408;-80
2021/03/16 03:39:09;;;;;;;0.20;0.20;;;;;;;6.26;100.00;100748.47;5010264;28;20061;-80
2021/03/16 03:42:15;;;;;;;0.30;0.30;;;;;;;6.41;100.00;100763.59;4994195;28;20077;-80
2021/03/16 03:45:19;;;;;;;0.20;0.20;;;;;;;6.77;100.00;100750.56;4993594;28;20065;-80
2021/03/16 03:48:26;;;;;;;0.20;0.20;;;;;;;6.98;100.00;100755.66;4994294;28;20547;-78
2021/03/16 03:51:32;;;;;;;0.13;0.13;;;;;;;7.11;100.00;100751.00;4994022;28;20065;-80
2021/03/16 03:54:36;;;;;;;0.10;0.10;;;;;;;7.20;100.00;100758.72;5004681;28;20073;-79
2021/03/16 03:57:41;;;;;;;0.75;0.65;;;;;;;7.23;100.00;100746.78;4993607;28;20061;-80
2021/03/16 04:00:47;;;;;;;0.10;0.10;;;;;;;7.22;100.00;100759.84;4994102;28;20065;-81
2021/03/16 04:03:51;;;;;;;0.10;0.10;;;;;;;7.24;100.00;100757.44;4994052;28;20061;-80
2021/03/16 04:06:56;;;;;;;0.35;0.35;;;;;;;7.23;100.00;100747.56;4993803;28;20069;-80
2021/03/16 04:10:00;;;;;;;0.10;0.00;;;;;;;7.24;100.00;100757.44;5004378;28;20061;-80
2021/03/16 04:13:04;;;;;;;0.10;0.00;;;;;;;7.26;100.00;100759.75;5003824;28;20515;-80
2021/03/16 04:16:08;;;;;;;0.17;0.17;;;;;;;7.29;100.00;100756.94;4992743;28;20527;-80
2021/03/16 04:19:12;;;;;;;0.10;0.10;;;;;;;7.33;100.00;100749.31;4993651;28;20057;-80
2021/03/16 04:22:17;;;;;;;0.20;0.20;;;;;;;7.39;100.00;100764.19;4992721;28;20066;-80
2021/03/16 04:25:21;;;;;;;0.10;0.10;;;;;;;7.37;100.00;100747.22;5003424;28;20453;-80
2021/03/16 04:28:25;;;;;;;0.17;0.17;;;;;;;7.41;100.00;100760.97;4993632;28;20077;-80
2021/03/16 04:31:29;;;;;;;0.40;0.40;;;;;;;7.42;100.00;100755.03;4993608;28;20065;-79
2021/03/16 04:34:32;;;;;;;0.10;0.10;;;;;;;7.49;100.00;100752.06;5003643;28;20073;-80
2021/03/16 04:37:38;;;;;;;0.35;0.32;;;;;;;7.53;100.00;100757.53;4993688;28;20065;-80
2021/03/16 04:40:42;;;;;;;0.30;0.30;;;;;;;7.59;100.00;100751.06;5011884;28;20069;-80
2021/03/16 04:43:46;;;;;;;0.10;0.10;;;;;;;7.57;100.00;100753.47;5011854;28;20061;-79
2021/03/16 04:46:50;;;;;;;0.10;0.10;;;;;;;7.60;100.00;100752.59;5012600;28;20060;-79
2021/03/16 04:49:53;;;;;;;0.10;0.10;;;;;;;7.63;100.00;100759.28;5012110;28;20057;-80
2021/03/16 04:52:56;;;;;;;0.10;0.10;;;;;;;7.63;100.00;100762.81;5012512;28;20057;-80
2021/03/16 04:56:00;;;;;;;0.20;0.20;;;;;;;7.68;100.00;100752.44;5012598;28;20053;-79
2021/03/16 04:59:04;;;;;;;0.10;0.10;;;;;;;7.68;100.00;100757.97;5012957;28;20069;-80
2021/03/16 05:02:08;;;;;;;0.20;0.20;;;;;;;7.73;100.00;100754.69;5007239;28;20069;-82
2021/03/16 05:05:12;;;;;;;0.10;0.10;;;;;;;7.74;100.00;100757.00;5012447;28;20526;-80
2021/03/16 05:08:15;;;;;;;0.20;0.20;;;;;;;7.73;100.00;100760.22;5008733;28;20412;-80
2021/03/16 05:11:19;;;;;;;0.20;0.20;;;;;;;7.73;100.00;100754.69;5011749;28;20550;-79
2021/03/16 05:14:22;;;;;;;0.10;0.10;;;;;;;7.72;100.00;100764.19;5012429;28;20057;-80
2021/03/16 05:17:26;;;;;;;0.10;0.10;;;;;;;7.70;100.00;100755.53;5012344;28;20420;-80
2021/03/16 05:20:30;;;;;;;0.10;0.10;;;;;;;7.70;100.00;100764.66;5012357;28;20065;-79
2021/03/16 05:23:33;;;;;;;0.10;0.10;;;;;;;7.66;100.00;100777.81;5012159;28;20068;-79
2021/03/16 05:26:37;;;;;;;0.25;0.25;;;;;;;7.65;100.00;100774.25;5011804;28;20073;-80
2021/03/16 05:29:40;;;;;;;0.10;0.10;;;;;;;7.68;100.00;100769.06;5011972;28;20068;-79
2021/03/16 05:32:44;;;;;;;0.10;0.10;;;;;;;7.69;100.00;100771.38;5011962;28;20530;-79
2021/03/16 05:35:48;;;;;;;0.10;0.10;;;;;;;7.68;100.00;100769.06;5011907;28;20065;-80
2021/03/16 05:38:52;;;;;;;0.17;0.10;;;;;;;7.71;100.00;100762.66;5011370;28;20064;-80
2021/03/16 05:41:55;;;;;;;0.10;0.10;;;;;;;7.68;100.00;100757.97;4992160;28;20058;-79
2021/03/16 05:45:00;;;;;;;0.10;0.10;;;;;;;7.64;100.00;100758.06;4992097;28;20061;-79
2021/03/16 05:48:06;;;;;;;1.55;0.30;;;;;;;7.65;100.00;100771.50;4991934;28;20077;-79
2021/03/16 05:51:12;;;;;;;0.10;0.10;;;;;;;7.63;100.00;100773.91;4992004;28;20069;-80
2021/03/16 05:54:16;;;;;;;0.10;0.10;;;;;;;7.64;100.00;100794.09;4991771;28;20069;-79
2021/03/16 05:57:21;;;;;;;0.10;0.10;;;;;;;7.65;100.00;100790.91;4991255;28;20420;-80
2021/03/16 06:00:25;;;;;;;0.10;0.10;;;;;;;7.64;100.00;100785.78;4992103;28;20061;-79
2021/03/16 06:03:28;;;;;;;0.10;0.10;;;;;;;7.64;100.00;100792.09;4991461;28;20065;-79
2021/03/16 06:06:32;;;;;;;0.10;0.10;;;;;;;7.62;100.00;100788.97;4991769;28;20065;-79
2021/03/16 06:09:35;;;;;;;0.10;0.10;;;;;;;7.62;100.00;100788.97;4991656;28;20053;-79
2021/03/16 06:12:39;;;;;;;0.20;0.20;;;;;;;7.61;100.00;100787.44;4991661;28;20065;-78
2021/03/16 06:15:42;;;;;;;0.10;0.10;;;;;;;7.61;100.00;100783.88;4992650;28;20069;-78
2021/03/16 06:18:47;;;;;;;0.10;0.10;;;;;;;7.58;100.00;100790.28;5008753;28;20100;-79
2021/03/16 06:22:05;;;;;;;0.10;0.10;;;;;;;7.54;100.00;100787.59;5008263;28;20053;-79
2021/03/16 06:25:09;;;;;;;0.10;0.10;;;;;;;7.50;100.00;100775.81;5008171;28;20053;-78
2021/03/16 06:28:15;;;;;;;0.25;0.25;;;;;;;7.53;100.00;100776.94;5008277;28;20064;-78
2021/03/16 06:31:25;;;;;;;0.20;0.20;;;;;;;7.54;100.00;100770.19;5008520;28;20080;-78
2021/03/16 06:34:28;;;;;;;0.10;0.10;;;;;;;7.51;100.00;100787.69;5007677;28;20053;-78
2021/03/16 06:37:34;;;;;;;0.10;0.10;;;;;;;7.49;100.00;100796.41;5008324;28;20057;-78
2021/03/16 06:40:38;;;;;;;0.10;0.10;;;;;;;7.50;100.00;100792.44;5008731;28;20077;-78
2021/03/16 06:43:51;;;;;;;0.10;0.10;;;;;;;7.49;100.00;100801.97;5009055;28;20061;-78
2021/03/16 06:47:00;;;;;;;0.10;0.10;;;;;;;7.52;100.00;100800.31;5008274;28;20416;-79
2021/03/16 06:50:03;;;;;;;0.10;0.10;;;;;;;7.50;100.00;100820.16;5009195;28;20053;-79
2021/03/16 06:53:25;;;;;;;0.10;0.10;;;;;;;7.47;100.00;100804.38;5007339;28;20053;-79
2021/03/16 06:56:29;;;;;;;0.20;0.20;;;;;;;7.46;100.00;100808.38;5006299;28;20057;-79
2021/03/16 06:59:33;;;;;;;0.13;0.13;;;;;;;7.48;100.00;100817.03;4989917;28;20464;-79
2021/03/16 07:02:36;;;;;;;0.13;0.13;;;;;;;7.52;100.00;100819.72;4990363;28;20405;-79
2021/03/16 07:05:40;;;;;;;0.10;0.10;;;;;;;7.56;100.00;100832.28;4992941;28;20057;-79
2021/03/16 07:08:46;;;;;;;0.10;0.10;;;;;;;7.57;100.00;100842.19;4971312;28;20070;-80
2021/03/16 07:11:56;;;;;;;0.20;0.20;;;;;;;7.58;100.00;100838.19;4970723;28;20054;-79
2021/03/16 07:15:00;;;;;;;0.10;0.10;;;;;;;7.77;100.00;100841.31;4975316;28;20061;-79
2021/03/16 07:18:05;;;;;;;0.10;0.10;;;;;;;7.70;100.00;100841.50;4974818;28;20539;-80
2021/03/16 07:21:24;;;;;;;0.10;0.10;;;;;;;7.76;100.00;100845.28;4975331;28;20417;-79
2021/03/16 07:24:30;;;;;;;0.20;0.20;;;;;;;7.82;100.00;100851.91;4974909;28;20070;-80
2021/03/16 07:27:33;;;;;;;0.13;0.13;;;;;;;7.83;100.00;100859.00;4993803;28;21935;-80
2021/03/16 07:30:37;;;;;;;0.10;0.10;;;;;;;7.84;100.00;100860.56;4992906;28;20065;-79
2021/03/16 07:33:41;;;;;;;0.20;0.20;;;;;;;7.77;100.00;100871.81;4992167;28;20077;-79
2021/03/16 07:36:49;;;;;;;0.10;0.10;;;;;;;7.76;100.00;100864.69;4992672;28;20061;-79
2021/03/16 07:39:54;;;;;;;0.20;0.20;;;;;;;7.69;100.00;100859.34;4994085;28;20057;-79
2021/03/16 07:42:59;;;;;;;0.10;0.10;;;;;;;7.76;100.00;100862.72;4994378;28;20077;-78
2021/03/16 07:46:17;;;;;;;0.10;0.10;;;;;;;7.85;100.00;100873.22;4993390;28;20054;-78
2021/03/16 07:49:38;;;;;;;0.10;0.10;;;;;;;7.92;100.00;100878.59;4993274;28;20114;-78
2021/03/16 07:52:46;;;;;;;0.10;0.10;;;;;;;7.98;100.00;100876.84;4994176;28;20085;-78
2021/03/16 07:55:49;;;;;;;0.10;0.10;;;;;;;8.07;100.00;100879.81;4993259;28;20059;-79
2021/03/16 07:58:54;;;;;;;0.10;0.10;;;;;;;8.08;100.00;100881.34;4993669;28;20080;-78
2021/03/16 08:01:58;;;;;;;0.10;0.10;;;;;;;8.12;100.00;100873.75;4993940;28;20053;-78
2021/03/16 08:05:13;;;;;;;0.10;0.10;;;;;;;8.13;100.00;100878.06;4994116;28;20413;-78
2021/03/16 08:08:18;;;;;;;0.10;0.10;;;;;;;8.11;100.00;100886.06;4993667;28;20066;-79
2021/03/16 08:11:22;;;;;;;0.10;0.10;;;;;;;8.13;100.00;100889.16;5008524;28;20064;-79
2021/03/16 08:14:29;;;;;;;0.10;0.10;;;;;;;8.14;100.00;100890.75;4993747;28;20065;-78
2021/03/16 08:17:35;;;;;;;0.10;0.10;;;;;;;8.11;100.00;100891.59;4993980;28;20085;-78
2021/03/16 08:20:39;;;;;;;0.10;0.10;;;;;;;8.13;100.00;100900.28;5008803;28;20057;-78
2021/03/16 08:23:43;;;;;;;0.10;0.10;;;;;;;8.13;100.00;100900.28;5013214;28;20384;-78
2021/03/16 08:26:54;;;;;;;0.10;0.00;;;;;;;8.11;100.00;100902.69;5012711;28;20428;-78
2021/03/16 08:29:57;;;;;;;0.10;0.10;;;;;;;8.10;100.00;100912.25;5012966;28;20065;-78
2021/03/16 08:33:14;;;;;;;0.10;0.10;;;;;;;8.10;100.00;100898.38;5012920;28;20064;-78
2021/03/16 08:36:18;;;;;;;0.17;0.17;;;;;;;8.15;100.00;100892.28;5012270;28;20060;-79
2021/03/16 08:39:24;;;;;;;0.10;0.10;;;;;;;8.22;100.00;100906.00;5012985;28;20073;-79
2021/03/16 08:42:28;;;;;;;0.10;0.10;;;;;;;8.23;100.00;100907.53;5013236;28;20130;-78
2021/03/16 08:45:32;;;;;;;0.10;0.10;;;;;;;8.24;100.00;100906.34;5012860;28;20534;-78
2021/03/16 08:48:36;;;;;;;0.10;0.10;;;;;;;8.25;100.00;100908.69;5012640;28;20061;-78
2021/03/16 08:51:40;;;;;;;0.10;0.10;;;;;;;8.28;100.00;100901.50;5012578;28;20065;-78
2021/03/16 08:54:43;;;;;;;0.10;0.10;;;;;;;8.32;100.00;100913.28;5012434;28;20060;-79
2021/03/16 08:57:46;;;;;;;0.20;0.20;;;;;;;8.38;100.00;100912.34;5009801;28;20057;-80
2021/03/16 09:00:50;;;;;;;0.10;0.10;;;;;;;8.46;100.00;100912.16;5011601;28;20090;-78
2021/03/16 09:03:54;;;;;;;0.10;0.10;;;;;;;8.51;100.00;100915.19;5010778;28;20428;-79
2021/03/16 09:06:57;;;;;;;0.10;0.10;;;;;;;8.60;100.00;100911.81;5011469;28;20240;-79
2021/03/16 09:10:16;;;;;;;0.10;0.10;;;;;;;8.66;100.00;100916.41;5011440;28;20073;-79
2021/03/16 09:13:29;;;;;;;0.10;0.10;;;;;;;8.85;100.00;100907.16;5010883;28;20061;-79
2021/03/16 09:16:33;;;;;;;0.10;0.10;;;;;;;8.93;100.00;100925.19;5012400;28;20065;-79
2021/03/16 09:19:36;;;;;;;0.10;0.10;;;;;;;8.91;100.00;100919.28;5011665;28;20416;-80
2021/03/16 09:22:40;;;;;;;0.10;0.10;;;;;;;8.99;100.00;100917.09;5011107;28;20072;-79
2021/03/16 09:25:45;;;;;;;0.10;0.08;;;;;;;9.02;100.00;100927.31;5011333;28;20060;-79
2021/03/16 09:28:49;;;;;;;0.10;0.10;;;;;;;9.08;100.00;100931.91;5010972;28;20157;-79
2021/03/16 09:31:53;;;;;;;0.10;0.10;;;;;;;9.18;100.00;100934.84;5011713;28;20064;-79
2021/03/16 09:34:57;;;;;;;0.10;0.10;;;;;;;9.23;100.00;100923.16;5011755;28;20061;-79
2021/03/16 09:38:03;;;;;;;0.10;0.00;;;;;;;9.28;100.00;100922.63;5011204;28;20136;-79
2021/03/16 09:41:09;;;;;;;0.10;0.10;;;;;;;9.35;100.00;100930.78;5011466;28;20061;-79
2021/03/16 09:44:13;;;;;;;0.10;0.10;;;;;;;9.34;100.00;100937.53;5011391;28;20061;-78
2021/03/16 09:47:25;;;;;;;0.10;0.10;;;;;;;9.35;100.00;100928.00;5010393;28;20057;-80
2021/03/16 09:50:33;;;;;;;0.10;0.10;;;;;;;9.37;100.00;100929.13;5010607;28;20057;-78
2021/03/16 09:53:36;;;;;;;0.10;0.10;;;;;;;9.37;100.00;100914.44;5010288;28;20073;-79
2021/03/16 09:56:40;;;;;;;0.10;0.10;;;;;;;9.37;100.00;100906.88;4991813;28;20065;-80
2021/03/16 09:59:45;;;;;;;0.10;0.10;;;;;;;9.44;100.00;100914.22;4991734;28;20412;-79
2021/03/16 10:02:49;;;;;;;0.10;0.10;;;;;;;9.44;100.00;100919.78;4991451;28;20062;-79
2021/03/16 10:06:07;;;;;;;0.52;0.52;;;;;;;9.39;100.00;100923.09;4990452;28;20065;-79
2021/03/16 10:09:13;;;;;;;0.10;0.10;;;;;;;9.31;100.00;100919.75;4989466;28;20108;-79
2021/03/16 10:12:22;;;;;;;0.10;0.10;;;;;;;9.30;100.00;100914.63;4989392;28;20061;-80
2021/03/16 10:15:35;;;;;;;0.10;0.10;;;;;;;9.29;100.00;100913.09;4991077;28;20053;-79
2021/03/16 10:18:44;;;;;;;0.10;0.10;;;;;;;9.30;100.00;100915.41;4990233;28;20062;-80
2021/03/16 10:21:48;;;;;;;0.10;0.10;;;;;;;9.29;100.00;100908.28;4986777;28;20054;-80
2021/03/16 10:24:59;;;;;;;0.10;0.10;;;;;;;9.25;100.00;100920.75;4988662;28;20547;-79
2021/03/16 10:28:05;;;;;;;0.10;0.10;;;;;;;9.19;100.00;100914.94;5012914;28;20061;-79
2021/03/16 10:31:12;;;;;;;0.10;0.10;;;;;;;9.20;100.00;100910.16;4991425;28;20065;-79
2021/03/16 10:34:16;;;;;;;0.10;0.10;;;;;;;9.31;100.00;100905.09;4991083;28;20061;-79
2021/03/16 10:37:22;;;;;;;0.10;0.10;;;;;;;9.40;100.00;100896.88;4998404;28;20527;-79
2021/03/16 10:40:26;;;;;;;0.10;0.10;;;;;;;9.39;100.00;100909.22;4990926;28;20519;-79
2021/03/16 10:43:29;;;;;;;0.10;0.10;;;;;;;9.42;100.00;100911.13;4991090;28;20057;-78
2021/03/16 10:46:35;;;;;;;0.10;0.10;;;;;;;9.46;100.00;100895.09;4990958;28;20065;-78
2021/03/16 10:49:39;;;;;;;0.10;0.10;;;;;;;9.52;100.00;100915.56;4990579;28;20061;-78
2021/03/16 10:52:42;;;;;;;0.10;0.10;;;;;;;9.54;100.00;100929.81;4990895;28;20520;-79
2021/03/16 10:55:46;;;;;;;0.10;0.10;;;;;;;9.53;100.00;100929.03;4991152;28;20061;-78
2021/03/16 10:58:50;;;;;;;0.10;0.10;;;;;;;9.51;100.00;100939.03;4991109;28;20061;-79
2021/03/16 11:01:53;;;;;;;0.10;0.10;;;;;;;9.46;100.00;100934.03;4990986;28;20065;-78
2021/03/16 11:04:57;;;;;;;0.00;0.00;;;;;;;9.42;100.00;100933.34;4998407;28;20053;-79
2021/03/16 11:08:01;;;;;;;0.10;0.00;;;;;;;9.36;100.00;100923.97;4991333;28;20065;-79
2021/03/16 11:11:04;;;;;;;0.10;0.10;;;;;;;9.31;100.00;100944.00;4994893;28;20061;-79
2021/03/16 11:14:08;;;;;;;0.10;0.10;;;;;;;9.27;100.00;100934.97;5005805;28;20049;-78
2021/03/16 11:17:12;;;;;;;0.10;0.10;;;;;;;9.26;100.00;100941.75;5010748;28;20057;-78
2021/03/16 11:20:17;;;;;;;0.10;0.10;;;;;;;9.30;100.00;100943.22;5010631;28;20526;-79
2021/03/16 11:23:20;;;;;;;0.10;0.10;;;;;;;9.28;100.00;100933.75;5010389;28;20412;-79
2021/03/16 11:26:24;;;;;;;0.10;0.10;;;;;;;9.34;100.00;100937.53;5009991;28;20056;-79
2021/03/16 11:29:27;;;;;;;0.10;0.10;;;;;;;9.32;100.00;100920.53;5009153;28;20064;-79
2021/03/16 11:32:31;;;;;;;0.10;0.10;;;;;;;9.29;100.00;100936.06;5010546;28;20058;-79
2021/03/16 11:35:35;;;;;;;0.10;0.10;;;;;;;9.31;100.00;100941.22;5010373;28;20049;-79
2021/03/16 11:38:38;;;;;;;0.10;0.10;;;;;;;9.34;100.00;100948.66;5010356;28;20061;-78
2021/03/16 11:41:42;;;;;;;0.10;0.10;;;;;;;9.34;100.00;100943.09;5010561;28;20076;-78
2021/03/16 11:44:45;;;;;;;0.10;0.05;;;;;;;9.36;100.00;100941.44;5010356;28;20065;-79
2021/03/16 11:47:48;;;;;;;0.10;0.10;;;;;;;9.31;100.00;100952.34;5009320;28;20408;-78
2021/03/16 11:50:52;;;;;;;0.10;0.10;;;;;;;9.29;100.00;100963.13;5010063;28;20061;-78
2021/03/16 11:53:55;;;;;;;0.10;0.10;;;;;;;9.24;100.00;100956.09;5010066;28;20069;-79
2021/03/16 11:56:59;;;;;;;0.10;0.10;;;;;;;9.27;100.00;100955.19;5008518;28;20077;-79
2021/03/16 12:00:05;;;;;;;0.10;0.10;;;;;;;9.36;100.00;100965.69;5010632;28;20065;-78
2021/03/16 12:03:08;;;;;;;0.10;0.10;;;;;;;9.30;100.00;100959.09;5014485;28;20527;-79
2021/03/16 12:06:11;;;;;;;0.10;0.10;;;;;;;9.23;100.00;100973.19;5012311;28;20633;-79
2021/03/16 12:09:15;;;;;;;0.10;0.10;;;;;;;9.15;100.00;100981.75;5013572;28;20221;-78
2021/03/16 12:12:19;;;;;;;0.10;0.10;;;;;;;9.18;100.00;100988.44;5012559;28;20064;-78
2021/03/16 12:15:22;;;;;;;0.10;0.10;;;;;;;9.32;100.00;100984.47;5013729;28;20057;-78
2021/03/16 12:18:26;;;;;;;0.10;0.10;;;;;;;9.28;100.00;101011.56;5013677;28;20531;-79
2021/03/16 12:21:30;;;;;;;0.10;0.10;;;;;;;9.33;100.00;101003.50;5013367;28;20064;-79
2021/03/16 12:24:34;;;;;;;0.10;0.10;;;;;;;9.33;100.00;101022.16;5013446;28;20076;-79
2021/03/16 12:27:37;;;;;;;0.10;0.10;;;;;;;9.36;100.00;101007.38;5012874;28;20073;-79
2021/03/16 12:30:40;;;;;;;0.10;0.10;;;;;;;9.48;100.00;101020.56;5013170;28;20077;-79
2021/03/16 12:33:44;;;;;;;0.10;0.10;;;;;;;9.57;100.00;101017.94;5013304;28;20535;-79
2021/03/16 12:36:49;;;;;;;0.10;0.10;;;;;;;9.64;100.00;101021.28;5012681;28;20542;-79
2021/03/16 12:39:53;;;;;;;0.10;0.10;;;;;;;9.68;100.00;101021.19;5012728;28;20072;-79
2021/03/16 12:42:56;;;;;;;0.10;0.10;;;;;;;9.58;100.00;101030.59;5011849;28;20061;-79
2021/03/16 12:46:00;;;;;;;0.20;0.20;;;;;;;9.50;100.00;101045.94;5012891;28;20061;-78
2021/03/16 12:49:03;;;;;;;0.10;0.10;;;;;;;9.44;100.00;101053.25;5012525;28;20419;-79
2021/03/16 12:52:06;;;;;;;0.10;0.10;;;;;;;9.40;100.00;101060.91;5012721;28;20065;-79
2021/03/16 12:55:10;;;;;;;0.10;0.10;;;;;;;9.29;100.00;101074.31;5012597;28;20141;-79
2021/03/16 12:58:14;;;;;;;0.10;0.00;;;;;;;9.20;100.00;101071.34;5011888;28;20061;-79
2021/03/16 13:01:18;;;;;;;0.10;0.00;;;;;;;9.08;100.00;101068.06;5003969;28;20523;-79
2021/03/16 13:04:21;;;;;;;0.10;0.00;;;;;;;9.00;100.00;101072.25;4993163;28;20061;-79
2021/03/16 13:07:24;;;;;;;0.10;0.10;;;;;;;8.94;100.00;101073.97;4993037;28;20053;-79
2021/03/16 13:10:28;;;;;;;0.10;0.10;;;;;;;8.94;100.00;101076.75;4992610;28;20045;-79
2021/03/16 13:13:32;;;;;;;0.10;0.10;;;;;;;8.94;100.00;101073.97;4992192;28;20062;-79
2021/03/16 13:16:35;;;;;;;0.10;0.10;;;;;;;8.93;100.00;101069.66;4993066;28;20062;-79
2021/03/16 13:19:39;;;;;;;0.10;0.10;;;;;;;8.87;100.00;101076.16;4992986;28;20066;-78
2021/03/16 13:22:42;;;;;;;0.10;0.10;;;;;;;8.86;100.00;101086.47;4991097;28;20069;-77
2021/03/16 13:25:46;;;;;;;0.10;0.10;;;;;;;8.81;100.00;101081.47;4992086;28;20062;-78
2021/03/16 13:28:49;;;;;;;0.10;0.00;;;;;;;8.78;100.00;101090.66;4992515;28;20061;-79
2021/03/16 13:31:54;;;;;;;0.10;0.00;;;;;;;8.73;100.00;101109.81;4992482;28;20062;-79
2021/03/16 13:34:59;;;;;;;0.10;0.10;;;;;;;8.71;100.00;101103.91;4992739;28;20066;-78
2021/03/16 13:38:02;;;;;;;0.10;0.05;;;;;;;8.71;100.00;101124.13;4991808;28;20065;-79
2021/03/16 13:41:06;;;;;;;0.10;0.10;;;;;;;8.72;100.00;101113.81;4991150;28;20077;-79
2021/03/16 13:44:10;;;;;;;0.10;0.10;;;;;;;8.71;100.00;101134.47;5007938;28;20076;-78
2021/03/16 13:47:14;;;;;;;0.10;0.10;;;;;;;8.70;100.00;101128.16;5013570;28;20065;-79
2021/03/16 13:50:17;;;;;;;0.10;0.10;;;;;;;8.68;100.00;101130.56;5012712;28;20064;-79
2021/03/16 13:53:20;;;;;;;0.20;0.20;;;;;;;8.66;100.00;101138.56;5021753;28;20061;-77
2021/03/16 13:56:24;;;;;;;0.10;0.10;;;;;;;8.67;100.00;101142.09;5011533;28;20076;-78
2021/03/16 13:59:27;;;;;;;0.10;0.10;;;;;;;8.73;100.00;101149.47;5010813;28;20427;-78
2021/03/16 14:02:31;;;;;;;0.10;0.10;;;;;;;8.73;100.00;101146.69;5012216;28;20066;-78
2021/03/16 14:05:35;;;;;;;0.10;0.10;;;;;;;8.71;100.00;101148.34;5011524;28;20061;-78
2021/03/16 14:08:38;;;;;;;0.10;0.10;;;;;;;8.66;100.00;101166.31;5010033;28;20518;-78
2021/03/16 14:11:42;;;;;;;0.10;0.10;;;;;;;8.63;100.00;101175.50;5011656;28;20068;-75
2021/03/16 14:14:45;;;;;;;0.10;0.10;;;;;;;8.63;100.00;101189.38;5011074;28;20061;-76
2021/03/16 14:17:49;;;;;;;0.13;0.13;;;;;;;8.58;100.00;101192.66;5011326;28;20069;-78
2021/03/16 14:20:52;;;;;;;0.10;0.10;;;;;;;8.57;100.00;101196.66;5011199;28;20420;-78